createdAt,value
2023-03-08T00:01:17.371Z,57.81
2023-03-08T00:03:44.624Z,57.45
2023-03-08T00:06:16.769Z,57.18
2023-03-08T00:08:44.011Z,57.11
2023-03-08T00:11:12.760Z,57.63
2023-03-08T00:13:40.205Z,57.90
2023-03-08T00:16:10.747Z,57.60
2023-03-08T00:18:37.969Z,57.09
2023-03-08T00:21:12.502Z,56.27
2023-03-08T00:23:40.261Z,57.13
2023-03-08T00:26:07.208Z,57.41
2023-03-08T00:28:34.182Z,57.34
2023-03-08T00:31:08.334Z,57.19
2023-03-08T00:33:36.221Z,56.69
2023-03-08T00:36:10.186Z,57.61
2023-03-08T00:38:37.494Z,57.40
2023-03-08T00:41:04.475Z,56.98
2023-03-08T00:43:31.504Z,56.51
2023-03-08T00:45:58.828Z,57.06
2023-03-08T00:48:25.875Z,57.73
2023-03-08T00:50:53.090Z,57.13
2023-03-08T00:53:20.613Z,57.47
2023-03-08T00:55:53.314Z,56.74
2023-03-08T00:58:21.701Z,57.86
2023-03-08T01:00:48.821Z,57.05
2023-03-08T01:03:16.593Z,57.59
2023-03-08T01:05:46.834Z,57.52
2023-03-08T01:08:14.896Z,58.12
2023-03-08T01:10:47.384Z,58.00
2023-03-08T01:13:14.250Z,58.26
2023-03-08T01:15:41.033Z,58.37
2023-03-08T01:18:07.953Z,57.79
2023-03-08T01:20:34.844Z,58.47
2023-03-08T01:23:01.808Z,58.21
2023-03-08T01:25:28.720Z,58.55
2023-03-08T01:27:55.552Z,58.76
2023-03-08T01:30:22.626Z,59.05
2023-03-08T01:32:49.470Z,58.33
2023-03-08T01:35:16.526Z,57.94
2023-03-08T01:37:43.337Z,58.64
2023-03-08T01:40:11.892Z,58.27
2023-03-08T01:42:40.305Z,58.72
2023-03-08T01:46:04.189Z,57.91
2023-03-08T01:48:37.008Z,58.55
2023-03-08T01:51:07.019Z,58.52
2023-03-08T01:53:37.689Z,58.28
2023-03-08T01:56:09.726Z,58.24
2023-03-08T01:58:36.903Z,57.82
2023-03-08T02:01:03.845Z,57.74
2023-03-08T02:03:30.707Z,58.34
2023-03-08T02:05:58.334Z,58.49
2023-03-08T02:08:25.427Z,58.56
2023-03-08T02:10:52.489Z,58.09
2023-03-08T02:13:21.294Z,58.51
2023-03-08T02:15:50.282Z,57.93
2023-03-08T02:18:17.108Z,58.30
2023-03-08T02:20:44.137Z,58.19
2023-03-08T02:23:29.129Z,58.29
2023-03-08T02:26:04.694Z,58.09
2023-03-08T02:28:33.516Z,58.51
2023-03-08T02:31:00.771Z,58.56
2023-03-08T02:33:28.021Z,58.98
2023-03-08T02:35:54.888Z,58.69
2023-03-08T02:38:22.450Z,58.95
2023-03-08T02:40:51.514Z,58.99
2023-03-08T02:43:19.244Z,59.28
2023-03-08T02:45:46.760Z,58.96
2023-03-08T02:48:14.766Z,58.99
2023-03-08T02:50:41.639Z,59.04
2023-03-08T02:53:08.887Z,58.95
2023-03-08T02:55:39.767Z,59.22
2023-03-08T02:58:08.770Z,59.17
2023-03-08T03:00:36.360Z,59.57
2023-03-08T03:03:03.305Z,59.23
2023-03-08T03:05:30.226Z,59.10
2023-03-08T03:07:58.646Z,59.24
2023-03-08T03:10:25.922Z,59.65
2023-03-08T03:12:52.961Z,59.04
2023-03-08T03:15:19.980Z,58.92
2023-03-08T03:17:46.860Z,59.18
2023-03-08T03:20:14.075Z,59.52
2023-03-08T03:22:40.948Z,59.63
2023-03-08T03:25:08.432Z,60.04
2023-03-08T03:27:35.242Z,59.80
2023-03-08T03:30:02.896Z,60.47
2023-03-08T03:32:29.744Z,60.40
2023-03-08T03:34:56.661Z,60.82
2023-03-08T03:37:23.539Z,60.39
2023-03-08T03:39:50.490Z,60.42
2023-03-08T03:42:17.302Z,60.16
2023-03-08T03:44:44.154Z,60.45
2023-03-08T03:47:11.681Z,60.55
2023-03-08T03:49:38.490Z,60.46
2023-03-08T03:52:05.731Z,60.41
2023-03-08T03:54:32.710Z,60.38
2023-03-08T03:57:00.350Z,60.53
2023-03-08T03:59:27.318Z,60.08
2023-03-08T04:01:54.302Z,60.07
2023-03-08T04:04:21.883Z,60.48
2023-03-08T04:06:48.812Z,59.79
2023-03-08T04:09:18.253Z,60.19
2023-03-08T04:11:45.163Z,60.03
2023-03-08T04:14:14.262Z,59.94
2023-03-08T04:16:41.214Z,60.06
2023-03-08T04:19:12.839Z,60.38
2023-03-08T04:21:40.198Z,59.85
2023-03-08T04:24:07.473Z,60.53
2023-03-08T04:26:34.573Z,60.46
2023-03-08T04:29:05.629Z,61.15
2023-03-08T04:31:35.202Z,61.23
2023-03-08T04:34:03.607Z,61.32
2023-03-08T04:36:31.002Z,61.32
2023-03-08T04:38:58.025Z,61.56
2023-03-08T04:41:25.163Z,61.57
2023-03-08T04:43:55.754Z,61.87
2023-03-08T04:46:27.882Z,62.25
2023-03-08T04:48:55.926Z,62.06
2023-03-08T04:51:27.044Z,62.16
2023-03-08T04:53:54.171Z,62.20
2023-03-08T04:56:21.337Z,62.37
2023-03-08T04:58:48.224Z,62.26
2023-03-08T05:01:22.901Z,62.37
2023-03-08T05:03:52.265Z,62.25
2023-03-08T05:06:20.914Z,62.23
2023-03-08T05:08:48.035Z,61.94
2023-03-08T05:11:23.423Z,61.91
2023-03-08T05:13:51.136Z,61.96
2023-03-08T05:16:18.026Z,62.11
2023-03-08T05:18:45.030Z,62.12
2023-03-08T05:21:15.492Z,62.07
2023-03-08T05:23:42.789Z,62.46
2023-03-08T05:26:13.140Z,62.78
2023-03-08T05:28:41.937Z,62.96
2023-03-08T05:31:19.424Z,63.02
2023-03-08T05:33:50.793Z,62.87
2023-03-08T05:36:18.596Z,63.22
2023-03-08T05:38:45.760Z,63.15
2023-03-08T05:41:15.813Z,63.48
2023-03-08T05:43:43.002Z,63.20
2023-03-08T05:46:16.461Z,62.98
2023-03-08T05:48:44.132Z,63.56
2023-03-08T05:51:15.002Z,63.63
2023-03-08T05:53:42.086Z,63.68
2023-03-08T05:56:18.706Z,63.53
2023-03-08T05:58:48.121Z,63.77
2023-03-08T06:01:25.055Z,63.89
2023-03-08T06:03:55.422Z,64.06
2023-03-08T06:06:25.038Z,63.64
2023-03-08T06:08:52.771Z,63.42
2023-03-08T06:11:20.200Z,63.57
2023-03-08T06:13:47.235Z,63.63
2023-03-08T06:16:14.599Z,63.62
2023-03-08T06:18:42.826Z,63.54
2023-03-08T06:21:19.090Z,63.99
2023-03-08T06:23:46.529Z,63.77
2023-03-08T06:26:14.635Z,64.02
2023-03-08T06:28:42.241Z,63.76
2023-03-08T06:31:16.705Z,64.42
2023-03-08T06:33:43.855Z,64.04
2023-03-08T06:36:18.468Z,64.15
2023-03-08T06:38:49.372Z,64.41
2023-03-08T06:41:18.414Z,64.58
2023-03-08T06:43:45.287Z,64.31
2023-03-08T06:46:19.229Z,64.30
2023-03-08T06:48:48.922Z,64.25
2023-03-08T06:51:16.460Z,64.16
2023-03-08T06:53:43.293Z,64.05
2023-03-08T06:56:13.623Z,64.33
2023-03-08T06:58:40.626Z,64.40
2023-03-08T07:01:09.632Z,64.39
2023-03-08T07:03:37.129Z,64.39
2023-03-08T07:06:07.687Z,64.39
2023-03-08T07:08:35.446Z,64.26
2023-03-08T07:11:02.687Z,64.23
2023-03-08T07:13:29.964Z,64.51
2023-03-08T07:15:57.580Z,64.57
2023-03-08T07:18:25.051Z,64.64
2023-03-08T07:20:58.381Z,64.63
2023-03-08T07:23:25.497Z,65.16
2023-03-08T07:25:52.497Z,65.90
2023-03-08T07:28:19.519Z,67.22
2023-03-08T07:30:48.738Z,68.76
2023-03-08T07:33:16.235Z,71.40
2023-03-08T07:35:43.069Z,73.20
2023-03-08T07:38:12.555Z,75.80
2023-03-08T07:40:39.817Z,76.88
2023-03-08T07:43:07.149Z,77.69
2023-03-08T07:45:34.293Z,78.71
2023-03-08T07:48:01.382Z,79.91
2023-03-08T07:50:28.844Z,81.07
2023-03-08T07:52:55.726Z,81.63
2023-03-08T07:55:22.627Z,82.61
2023-03-08T07:57:49.510Z,83.55
2023-03-08T08:00:17.149Z,84.36
2023-03-08T08:02:44.031Z,85.22
2023-03-08T08:05:10.908Z,85.75
2023-03-08T08:07:37.823Z,86.63
2023-03-08T08:10:05.623Z,86.84
2023-03-08T08:12:32.509Z,87.57
2023-03-08T08:14:59.829Z,87.61
2023-03-08T08:17:26.855Z,88.67
2023-03-08T08:19:53.778Z,89.24
2023-03-08T08:22:20.659Z,89.67
2023-03-08T08:24:47.544Z,89.94
2023-03-08T08:27:15.422Z,91.07
2023-03-08T08:29:46.067Z,91.52
2023-03-08T08:32:12.986Z,92.28
2023-03-08T08:34:39.904Z,92.91
2023-03-08T08:37:06.753Z,93.47
2023-03-08T08:39:33.740Z,94.48
2023-03-08T08:42:00.576Z,95.14
2023-03-08T08:44:27.390Z,95.31
2023-03-08T08:46:54.158Z,95.10
2023-03-08T08:49:20.975Z,94.62
2023-03-08T08:51:47.832Z,95.57
2023-03-08T08:54:14.782Z,95.32
2023-03-08T08:56:43.510Z,96.28
2023-03-08T08:59:12.547Z,96.11
2023-03-08T09:01:43.727Z,96.30
2023-03-08T09:04:16.638Z,96.16
2023-03-08T09:06:43.853Z,96.21
2023-03-08T09:09:10.694Z,96.71
2023-03-08T09:11:48.688Z,98.41
2023-03-08T09:14:19.002Z,97.18
2023-03-08T09:16:46.000Z,94.77
2023-03-08T09:19:16.021Z,94.80
2023-03-08T09:21:43.013Z,95.69
2023-03-08T09:24:12.090Z,95.98
2023-03-08T09:26:38.985Z,96.52
2023-03-08T09:29:07.350Z,97.28
2023-03-08T09:31:37.874Z,97.53
2023-03-08T09:34:08.592Z,98.05
2023-03-08T09:36:42.071Z,97.31
2023-03-08T09:39:11.912Z,97.74
2023-03-08T09:41:44.736Z,98.21
2023-03-08T09:44:43.663Z,98.22
2023-03-08T09:47:30.278Z,98.08
2023-03-08T09:50:41.178Z,98.51
2023-03-08T09:53:21.124Z,98.95
2023-03-08T09:56:00.363Z,98.64
2023-03-08T09:58:34.948Z,99.37
2023-03-08T10:01:22.645Z,99.55
2023-03-08T10:04:34.525Z,100.00
2023-03-08T10:07:28.324Z,100.00
2023-03-08T10:10:24.673Z,99.82
2023-03-08T10:13:34.680Z,99.79
2023-03-08T10:16:19.514Z,100.00
2023-03-08T10:19:05.837Z,100.00
2023-03-08T10:21:37.486Z,100.00
2023-03-08T10:24:14.517Z,100.00
2023-03-08T10:26:43.411Z,100.00
2023-03-08T10:29:14.321Z,99.83
2023-03-08T10:31:44.699Z,100.00
2023-03-08T10:34:24.965Z,100.00
2023-03-08T10:37:00.756Z,100.00
2023-03-08T10:39:28.267Z,100.00
2023-03-08T10:41:59.878Z,100.00
2023-03-08T10:44:42.604Z,100.00
2023-03-08T10:47:24.519Z,100.00
2023-03-08T10:50:09.727Z,100.00
2023-03-08T10:52:36.784Z,100.00
2023-03-08T10:55:10.313Z,100.00
2023-03-08T10:57:40.392Z,100.00
2023-03-08T11:00:29.312Z,100.00
2023-03-08T11:03:18.374Z,100.00
2023-03-08T11:06:13.568Z,100.00
2023-03-08T11:08:52.849Z,100.00
2023-03-08T11:11:19.760Z,100.00
2023-03-08T11:13:49.579Z,100.00
2023-03-08T11:16:45.282Z,100.00
2023-03-08T11:19:33.365Z,100.00
2023-03-08T11:22:29.478Z,100.00
2023-03-08T11:25:21.630Z,100.00
2023-03-08T11:28:25.560Z,100.00
2023-03-08T11:31:27.609Z,100.00
2023-03-08T11:34:18.174Z,100.00
2023-03-08T11:37:13.356Z,100.00
2023-03-08T11:40:17.885Z,100.00
2023-03-08T11:43:13.944Z,100.00
2023-03-08T11:45:52.003Z,100.00
2023-03-08T11:48:51.989Z,100.00
2023-03-08T11:51:30.451Z,100.00
2023-03-08T11:54:25.375Z,100.00
2023-03-08T11:56:59.588Z,100.00
2023-03-08T11:59:43.728Z,100.00
2023-03-08T12:02:23.690Z,100.00
2023-03-08T12:05:30.847Z,100.00
2023-03-08T12:08:05.011Z,100.00
2023-03-08T12:10:47.964Z,100.00
2023-03-08T12:13:20.556Z,100.00
2023-03-08T12:15:55.718Z,100.00
2023-03-08T12:18:34.529Z,100.00
2023-03-08T12:21:24.662Z,100.00
2023-03-08T12:24:35.422Z,100.00
2023-03-08T12:27:27.321Z,100.00
2023-03-08T12:30:10.216Z,100.00
2023-03-08T12:32:39.856Z,100.00
2023-03-08T12:35:32.533Z,100.00
2023-03-08T12:38:04.249Z,100.00
2023-03-08T12:40:46.982Z,100.00
2023-03-08T12:43:21.032Z,99.74
2023-03-08T12:46:01.009Z,100.00
2023-03-08T12:48:32.916Z,100.00
2023-03-08T12:51:04.803Z,100.00
2023-03-08T12:53:38.010Z,100.00
2023-03-08T12:56:09.168Z,100.00
2023-03-08T12:59:24.990Z,100.00
2023-03-08T13:01:59.279Z,100.00
2023-03-08T13:04:41.954Z,100.00
2023-03-08T13:07:33.959Z,100.00
2023-03-08T13:10:07.735Z,100.00
2023-03-08T13:12:52.708Z,100.00
2023-03-08T13:15:25.499Z,100.00
2023-03-08T13:18:05.731Z,100.00
2023-03-08T13:20:53.696Z,100.00
2023-03-08T13:23:48.457Z,100.00
2023-03-08T13:27:09.219Z,100.00
2023-03-08T13:29:36.474Z,100.00
2023-03-08T13:32:17.631Z,100.00
2023-03-08T13:34:47.050Z,100.00
2023-03-08T13:37:26.426Z,100.00
2023-03-08T13:39:55.635Z,100.00
2023-03-08T13:42:25.204Z,100.00
2023-03-08T13:44:54.475Z,100.00
2023-03-08T13:47:30.284Z,100.00
2023-03-08T13:49:58.698Z,100.00
2023-03-08T13:52:32.805Z,100.00
2023-03-08T13:55:03.940Z,100.00
2023-03-08T13:57:36.434Z,100.00
2023-03-08T14:00:31.789Z,100.00
2023-03-08T14:03:01.065Z,100.00
2023-03-08T14:05:39.892Z,100.00
2023-03-08T14:08:18.886Z,100.00
2023-03-08T14:10:51.272Z,100.00
2023-03-08T14:13:29.168Z,100.00
2023-03-08T14:16:00.799Z,100.00
2023-03-08T14:18:38.152Z,100.00
2023-03-08T14:21:16.264Z,100.00
2023-03-08T14:23:52.327Z,100.00
2023-03-08T14:26:35.070Z,99.58
2023-03-08T14:29:13.854Z,98.96
2023-03-08T14:32:02.175Z,98.52
2023-03-08T14:34:35.980Z,98.57
2023-03-08T14:37:11.667Z,98.53
2023-03-08T14:39:50.471Z,98.75
2023-03-08T14:42:41.796Z,99.61
2023-03-08T14:45:42.378Z,100.00
2023-03-08T14:48:25.818Z,100.00
2023-03-08T14:50:56.722Z,100.00
2023-03-08T14:53:38.640Z,100.00
2023-03-08T14:56:15.131Z,100.00
2023-03-08T14:58:49.270Z,100.00
2023-03-08T15:01:28.993Z,100.00
2023-03-08T15:03:56.482Z,100.00
2023-03-08T15:06:32.555Z,100.00
2023-03-08T15:09:01.519Z,100.00
2023-03-08T15:11:31.602Z,100.00
2023-03-08T15:13:59.517Z,100.00
2023-03-08T15:16:26.704Z,100.00
2023-03-08T15:18:53.653Z,100.00
2023-03-08T15:21:28.902Z,100.00
2023-03-08T15:23:56.651Z,100.00
2023-03-08T15:26:31.769Z,100.00
2023-03-08T15:29:03.214Z,100.00
2023-03-08T15:31:31.111Z,100.00
2023-03-08T15:33:58.061Z,100.00
2023-03-08T15:36:25.111Z,100.00
2023-03-08T15:38:52.222Z,100.00
2023-03-08T15:41:19.158Z,100.00
2023-03-08T15:43:46.402Z,100.00
2023-03-08T15:46:14.964Z,100.00
2023-03-08T15:48:42.573Z,100.00
2023-03-08T15:51:19.267Z,100.00
2023-03-08T15:53:47.148Z,100.00
2023-03-08T15:56:14.667Z,100.00
2023-03-08T15:58:41.707Z,100.00
2023-03-08T16:01:11.928Z,100.00
2023-03-08T16:03:39.269Z,100.00
2023-03-08T16:06:14.599Z,100.00
2023-03-08T16:08:42.203Z,99.94
2023-03-08T16:11:11.329Z,99.76
2023-03-08T16:13:38.451Z,98.48
2023-03-08T16:16:06.620Z,98.55
2023-03-08T16:18:35.717Z,98.10
2023-03-08T16:21:09.818Z,98.75
2023-03-08T16:23:39.062Z,99.81
2023-03-08T16:26:16.397Z,100.00
2023-03-08T16:28:46.993Z,100.00
2023-03-08T16:31:15.619Z,100.00
2023-03-08T16:33:42.894Z,99.39
2023-03-08T16:36:11.800Z,99.26
2023-03-08T16:38:38.877Z,99.28
2023-03-08T16:41:14.413Z,99.33
2023-03-08T16:45:38.713Z,97.60
2023-03-08T16:46:30.595Z,97.02
2023-03-08T16:48:57.546Z,97.26
2023-03-08T16:51:27.912Z,97.24
2023-03-08T16:53:55.180Z,95.79
2023-03-08T16:56:25.758Z,95.30
2023-03-08T16:58:54.735Z,95.02
2023-03-08T17:01:22.639Z,94.87
2023-03-08T17:03:50.091Z,95.38
2023-03-08T17:06:20.693Z,94.84
2023-03-08T17:08:48.207Z,94.85
2023-03-08T17:11:21.277Z,94.33
2023-03-08T17:13:51.071Z,93.76
2023-03-08T17:16:27.825Z,93.72
2023-03-08T17:18:55.660Z,93.99
2023-03-08T17:21:22.951Z,93.87
2023-03-08T17:23:51.200Z,93.42
2023-03-08T17:26:21.638Z,92.91
2023-03-08T17:28:53.507Z,93.53
2023-03-08T17:31:23.010Z,94.47
2023-03-08T17:33:50.305Z,95.20
2023-03-08T17:36:17.685Z,95.33
2023-03-08T17:38:44.696Z,96.46
2023-03-08T17:41:16.587Z,97.42
2023-03-08T17:43:43.447Z,98.40
2023-03-08T17:46:24.210Z,99.69
2023-03-08T17:48:53.036Z,99.92
2023-03-08T17:51:24.134Z,100.00
2023-03-08T17:53:51.177Z,100.00
2023-03-08T17:56:22.116Z,100.00
2023-03-08T17:58:49.737Z,100.00
2023-03-08T18:01:22.752Z,100.00
2023-03-08T18:03:49.941Z,100.00
2023-03-08T18:06:39.282Z,100.00
2023-03-08T18:09:10.662Z,100.00
2023-03-08T18:11:37.850Z,100.00
2023-03-08T18:14:14.016Z,100.00
2023-03-08T18:16:42.565Z,100.00
2023-03-08T18:19:10.915Z,100.00
2023-03-08T18:21:40.846Z,100.00
2023-03-08T18:24:11.434Z,100.00
2023-03-08T18:26:38.524Z,100.00
2023-03-08T18:29:05.373Z,100.00
2023-03-08T18:31:35.023Z,100.00
2023-03-08T18:34:02.778Z,100.00
2023-03-08T18:36:29.945Z,100.00
2023-03-08T18:38:56.927Z,100.00
2023-03-08T18:41:29.586Z,100.00
2023-03-08T18:43:58.971Z,100.00
2023-03-08T18:46:29.515Z,100.00
2023-03-08T18:48:56.771Z,100.00
2023-03-08T18:51:24.024Z,100.00
2023-03-08T18:53:50.954Z,100.00
2023-03-08T18:56:17.799Z,100.00
2023-03-08T18:58:44.626Z,100.00
2023-03-08T19:01:16.608Z,100.00
2023-03-08T19:03:45.027Z,100.00
2023-03-08T19:06:13.505Z,100.00
2023-03-08T19:08:41.065Z,100.00
2023-03-08T19:11:21.037Z,100.00
2023-03-08T19:13:48.842Z,100.00
2023-03-08T19:16:28.485Z,100.00
2023-03-08T19:18:59.280Z,100.00
2023-03-08T19:21:36.321Z,100.00
2023-03-08T19:24:03.664Z,100.00
2023-03-08T19:26:37.603Z,100.00
2023-03-08T19:29:23.341Z,100.00
2023-03-08T19:31:57.285Z,100.00
2023-03-08T19:34:34.231Z,100.00
2023-03-08T19:37:02.182Z,100.00
2023-03-08T19:39:32.649Z,100.00
2023-03-08T19:42:03.475Z,100.00
2023-03-08T19:44:31.383Z,100.00
2023-03-08T19:46:59.259Z,100.00
2023-03-08T19:49:29.937Z,100.00
2023-03-08T19:51:59.985Z,100.00
2023-03-08T19:54:28.433Z,100.00
2023-03-08T19:56:56.217Z,100.00
2023-03-08T19:59:23.429Z,100.00
2023-03-08T20:01:51.596Z,100.00
2023-03-08T20:04:18.540Z,100.00
2023-03-08T20:06:47.708Z,100.00
2023-03-08T20:09:21.258Z,100.00
2023-03-08T20:11:50.745Z,100.00
2023-03-08T20:14:17.568Z,100.00
2023-03-08T20:16:44.509Z,100.00
2023-03-08T20:19:11.788Z,100.00
2023-03-08T20:21:39.580Z,100.00
2023-03-08T20:24:06.528Z,100.00
2023-03-08T20:26:37.007Z,100.00
2023-03-08T20:29:05.117Z,100.00
2023-03-08T20:31:32.820Z,100.00
2023-03-08T20:34:00.200Z,100.00
2023-03-08T20:36:28.510Z,100.00
2023-03-08T20:38:57.411Z,100.00
2023-03-08T20:41:24.509Z,100.00
2023-03-08T20:43:55.369Z,100.00
2023-03-08T20:46:32.917Z,100.00
2023-03-08T20:49:00.714Z,100.00
2023-03-08T20:51:28.255Z,100.00
2023-03-08T20:53:55.832Z,100.00
2023-03-08T20:56:24.554Z,100.00
2023-03-08T20:58:54.492Z,100.00
2023-03-08T21:01:29.409Z,100.00
2023-03-08T21:03:56.387Z,100.00
2023-03-08T21:06:27.672Z,100.00
2023-03-08T21:08:54.704Z,100.00
2023-03-08T21:11:22.530Z,100.00
2023-03-08T21:13:51.208Z,100.00
2023-03-08T21:16:20.593Z,100.00
2023-03-08T21:18:56.180Z,100.00
2023-03-08T21:21:34.208Z,100.00
2023-03-08T21:24:07.738Z,100.00
2023-03-08T21:26:35.327Z,100.00
2023-03-08T21:29:05.964Z,100.00
2023-03-08T21:31:36.249Z,100.00
2023-03-08T21:34:06.977Z,100.00
2023-03-08T21:36:36.872Z,100.00
2023-03-08T21:39:05.319Z,100.00
2023-03-08T21:41:36.270Z,100.00
2023-03-08T21:44:09.201Z,100.00
2023-03-08T21:46:37.411Z,100.00
2023-03-08T21:49:06.215Z,100.00
2023-03-08T21:51:34.272Z,100.00
2023-03-08T21:54:01.401Z,100.00
2023-03-08T21:56:28.234Z,100.00
2023-03-08T21:58:56.274Z,100.00
2023-03-08T22:01:27.441Z,100.00
2023-03-08T22:03:54.574Z,100.00
2023-03-08T22:06:23.441Z,100.00
2023-03-08T22:08:50.614Z,100.00
2023-03-08T22:11:18.810Z,100.00
2023-03-08T22:13:51.334Z,100.00
2023-03-08T22:16:18.892Z,100.00
2023-03-08T22:18:46.699Z,100.00
2023-03-08T22:21:13.967Z,100.00
2023-03-08T22:23:40.852Z,100.00
2023-03-08T22:26:09.557Z,100.00
2023-03-08T22:28:37.965Z,100.00
2023-03-08T22:31:19.111Z,100.00
2023-03-08T22:33:46.234Z,100.00
2023-03-08T22:36:15.742Z,100.00
2023-03-08T22:38:42.905Z,100.00
2023-03-08T22:41:12.717Z,100.00
2023-03-08T22:43:42.693Z,100.00
2023-03-08T22:46:14.321Z,100.00
2023-03-08T22:48:41.230Z,100.00
2023-03-08T22:51:11.455Z,100.00
2023-03-08T22:53:39.906Z,100.00
2023-03-08T22:56:10.139Z,100.00
2023-03-08T22:58:36.993Z,100.00
2023-03-08T23:01:03.853Z,100.00
2023-03-08T23:03:31.557Z,100.00
2023-03-08T23:05:58.443Z,100.00
2023-03-08T23:08:25.527Z,100.00
2023-03-08T23:10:52.394Z,100.00
2023-03-08T23:13:32.951Z,100.00
2023-03-08T23:16:00.169Z,100.00
2023-03-08T23:18:27.020Z,100.00
2023-03-08T23:20:54.164Z,100.00
2023-03-08T23:23:24.954Z,100.00
2023-03-08T23:25:52.526Z,100.00
2023-03-08T23:28:20.174Z,100.00
2023-03-08T23:30:47.380Z,100.00
2023-03-08T23:33:14.341Z,100.00
2023-03-08T23:35:41.395Z,100.00
2023-03-08T23:38:08.649Z,100.00
2023-03-08T23:40:39.900Z,100.00
2023-03-08T23:43:07.314Z,100.00
2023-03-08T23:45:34.307Z,100.00
2023-03-08T23:48:03.299Z,100.00
2023-03-08T23:50:30.548Z,100.00
2023-03-08T23:52:57.399Z,100.00
2023-03-08T23:55:24.367Z,100.00
2023-03-08T23:57:51.296Z,100.00
